sensor_id;sensor_type;location;lat;lon;timestamp;P1;durP1;ratioP1;P2;durP2;ratioP2
7049;SDS011;22263;52.260;10.548;2023-05-16T00:00:25;0.30;;;0.30;;
7049;SDS011;22263;52.260;10.548;2023-05-16T00:03:56;0.30;;;0.30;;
7049;SDS011;22263;52.260;10.548;2023-05-16T00:07:28;0.40;;;0.40;;
7049;SDS011;22263;52.260;10.548;2023-05-16T00:10:56;0.40;;;0.40;;
7049;SDS011;22263;52.260;10.548;2023-05-16T00:14:25;0.40;;;0.40;;
7049;SDS011;22263;52.260;10.548;2023-05-16T00:17:55;0.40;;;0.40;;
7049;SDS011;22263;52.260;10.548;2023-05-16T00:21:25;0.40;;;0.40;;
7049;SDS011;22263;52.260;10.548;2023-05-16T00:24:56;0.40;;;0.40;;
7049;SDS011;22263;52.260;10.548;2023-05-16T00:28:24;0.40;;;0.40;;
7049;SDS011;22263;52.260;10.548;2023-05-16T00:31:53;0.40;;;0.40;;
7049;SDS011;22263;52.260;10.548;2023-05-16T00:35:22;0.40;;;0.40;;
7049;SDS011;22263;52.260;10.548;2023-05-16T00:38:51;0.40;;;0.40;;
7049;SDS011;22263;52.260;10.548;2023-05-16T00:42:22;0.40;;;0.40;;
7049;SDS011;22263;52.260;10.548;2023-05-16T00:45:50;0.40;;;0.40;;
7049;SDS011;22263;52.260;10.548;2023-05-16T00:49:22;0.40;;;0.40;;
7049;SDS011;22263;52.260;10.548;2023-05-16T00:52:50;0.40;;;0.40;;
7049;SDS011;22263;52.260;10.548;2023-05-16T00:56:23;0.43;;;0.43;;
7049;SDS011;22263;52.260;10.548;2023-05-16T00:59:54;0.40;;;0.40;;
7049;SDS011;22263;52.260;10.548;2023-05-16T01:03:23;0.40;;;0.40;;
7049;SDS011;22263;52.260;10.548;2023-05-16T01:06:52;0.40;;;0.40;;
7049;SDS011;22263;52.260;10.548;2023-05-16T01:10:21;0.40;;;0.40;;
7049;SDS011;22263;52.260;10.548;2023-05-16T01:14:01;0.40;;;0.40;;
7049;SDS011;22263;52.260;10.548;2023-05-16T01:17:39;0.30;;;0.30;;
7049;SDS011;22263;52.260;10.548;2023-05-16T01:21:13;0.40;;;0.40;;
7049;SDS011;22263;52.260;10.548;2023-05-16T01:24:48;0.40;;;0.40;;
7049;SDS011;22263;52.260;10.548;2023-05-16T01:28:38;0.40;;;0.40;;
7049;SDS011;22263;52.260;10.548;2023-05-16T01:32:10;0.40;;;0.40;;
7049;SDS011;22263;52.260;10.548;2023-05-16T01:35:39;0.40;;;0.40;;
7049;SDS011;22263;52.260;10.548;2023-05-16T01:39:14;0.40;;;0.40;;
7049;SDS011;22263;52.260;10.548;2023-05-16T01:42:49;0.40;;;0.40;;
7049;SDS011;22263;52.260;10.548;2023-05-16T01:46:22;0.40;;;0.40;;
7049;SDS011;22263;52.260;10.548;2023-05-16T01:49:55;0.40;;;0.40;;
7049;SDS011;22263;52.260;10.548;2023-05-16T01:53:26;0.30;;;0.30;;
7049;SDS011;22263;52.260;10.548;2023-05-16T01:56:59;0.40;;;0.40;;
7049;SDS011;22263;52.260;10.548;2023-05-16T02:00:34;0.40;;;0.40;;
7049;SDS011;22263;52.260;10.548;2023-05-16T02:04:03;0.40;;;0.40;;
7049;SDS011;22263;52.260;10.548;2023-05-16T02:07:32;0.40;;;0.40;;
7049;SDS011;22263;52.260;10.548;2023-05-16T02:11:00;0.50;;;0.50;;
7049;SDS011;22263;52.260;10.548;2023-05-16T02:14:32;0.50;;;0.50;;
7049;SDS011;22263;52.260;10.548;2023-05-16T02:18:01;0.40;;;0.40;;
7049;SDS011;22263;52.260;10.548;2023-05-16T02:21:29;0.40;;;0.40;;
7049;SDS011;22263;52.260;10.548;2023-05-16T02:24:59;0.40;;;0.40;;
7049;SDS011;22263;52.260;10.548;2023-05-16T02:28:27;0.40;;;0.40;;
7049;SDS011;22263;52.260;10.548;2023-05-16T02:31:58;0.50;;;0.50;;
7049;SDS011;22263;52.260;10.548;2023-05-16T02:35:28;0.50;;;0.50;;
7049;SDS011;22263;52.260;10.548;2023-05-16T02:38:57;0.40;;;0.40;;
7049;SDS011;22263;52.260;10.548;2023-05-16T02:42:26;0.30;;;0.30;;
7049;SDS011;22263;52.260;10.548;2023-05-16T02:45:54;0.30;;;0.30;;
7049;SDS011;22263;52.260;10.548;2023-05-16T02:49:25;0.40;;;0.40;;
7049;SDS011;22263;52.260;10.548;2023-05-16T02:52:53;0.40;;;0.40;;
7049;SDS011;22263;52.260;10.548;2023-05-16T02:56:22;0.40;;;0.40;;
7049;SDS011;22263;52.260;10.548;2023-05-16T02:59:51;0.30;;;0.30;;
7049;SDS011;22263;52.260;10.548;2023-05-16T03:03:19;0.50;;;0.50;;
7049;SDS011;22263;52.260;10.548;2023-05-16T03:06:51;0.40;;;0.40;;
7049;SDS011;22263;52.260;10.548;2023-05-16T03:10:19;0.30;;;0.30;;
7049;SDS011;22263;52.260;10.548;2023-05-16T03:13:48;0.30;;;0.30;;
7049;SDS011;22263;52.260;10.548;2023-05-16T03:17:17;0.40;;;0.40;;
7049;SDS011;22263;52.260;10.548;2023-05-16T03:20:45;0.40;;;0.40;;
7049;SDS011;22263;52.260;10.548;2023-05-16T03:24:16;0.40;;;0.40;;
7049;SDS011;22263;52.260;10.548;2023-05-16T03:27:44;0.40;;;0.40;;
7049;SDS011;22263;52.260;10.548;2023-05-16T03:31:13;0.40;;;0.40;;
7049;SDS011;22263;52.260;10.548;2023-05-16T03:34:41;0.40;;;0.40;;
7049;SDS011;22263;52.260;10.548;2023-05-16T03:38:11;0.35;;;0.35;;
7049;SDS011;22263;52.260;10.548;2023-05-16T03:41:42;0.35;;;0.35;;
7049;SDS011;22263;52.260;10.548;2023-05-16T03:45:10;0.40;;;0.40;;
7049;SDS011;22263;52.260;10.548;2023-05-16T03:48:39;0.40;;;0.40;;
7049;SDS011;22263;52.260;10.548;2023-05-16T03:52:07;0.40;;;0.40;;
7049;SDS011;22263;52.260;10.548;2023-05-16T03:55:36;0.30;;;0.30;;
7049;SDS011;22263;52.260;10.548;2023-05-16T03:59:07;0.50;;;0.50;;
7049;SDS011;22263;52.260;10.548;2023-05-16T04:02:37;0.40;;;0.40;;
7049;SDS011;22263;52.260;10.548;2023-05-16T04:06:05;0.40;;;0.40;;
7049;SDS011;22263;52.260;10.548;2023-05-16T04:09:34;0.40;;;0.40;;
7049;SDS011;22263;52.260;10.548;2023-05-16T04:13:02;0.30;;;0.30;;
7049;SDS011;22263;52.260;10.548;2023-05-16T04:16:33;0.40;;;0.40;;
7049;SDS011;22263;52.260;10.548;2023-05-16T04:20:02;0.40;;;0.40;;
7049;SDS011;22263;52.260;10.548;2023-05-16T04:23:30;0.40;;;0.40;;
7049;SDS011;22263;52.260;10.548;2023-05-16T04:26:59;0.30;;;0.30;;
7049;SDS011;22263;52.260;10.548;2023-05-16T04:30:27;0.30;;;0.30;;
7049;SDS011;22263;52.260;10.548;2023-05-16T04:34:02;0.40;;;0.40;;
7049;SDS011;22263;52.260;10.548;2023-05-16T04:37:30;0.40;;;0.40;;
7049;SDS011;22263;52.260;10.548;2023-05-16T04:40:58;0.40;;;0.40;;
7049;SDS011;22263;52.260;10.548;2023-05-16T04:44:27;0.40;;;0.40;;
7049;SDS011;22263;52.260;10.548;2023-05-16T04:47:55;0.40;;;0.40;;
7049;SDS011;22263;52.260;10.548;2023-05-16T04:51:26;0.50;;;0.50;;
7049;SDS011;22263;52.260;10.548;2023-05-16T04:54:54;0.40;;;0.40;;
7049;SDS011;22263;52.260;10.548;2023-05-16T04:58:23;0.30;;;0.30;;
7049;SDS011;22263;52.260;10.548;2023-05-16T05:01:51;0.40;;;0.40;;
7049;SDS011;22263;52.260;10.548;2023-05-16T05:05:20;0.40;;;0.40;;
7049;SDS011;22263;52.260;10.548;2023-05-16T05:08:50;0.40;;;0.40;;
7049;SDS011;22263;52.260;10.548;2023-05-16T05:12:21;0.30;;;0.30;;
7049;SDS011;22263;52.260;10.548;2023-05-16T05:15:49;0.40;;;0.40;;
7049;SDS011;22263;52.260;10.548;2023-05-16T05:19:18;0.40;;;0.40;;
7049;SDS011;22263;52.260;10.548;2023-05-16T05:22:47;0.40;;;0.40;;
7049;SDS011;22263;52.260;10.548;2023-05-16T05:26:18;0.40;;;0.40;;
7049;SDS011;22263;52.260;10.548;2023-05-16T05:29:46;0.40;;;0.40;;
7049;SDS011;22263;52.260;10.548;2023-05-16T05:33:15;0.40;;;0.40;;
7049;SDS011;22263;52.260;10.548;2023-05-16T05:36:43;0.40;;;0.40;;
7049;SDS011;22263;52.260;10.548;2023-05-16T05:40:12;0.35;;;0.35;;
7049;SDS011;22263;52.260;10.548;2023-05-16T05:43:43;0.40;;;0.40;;
7049;SDS011;22263;52.260;10.548;2023-05-16T05:47:11;0.30;;;0.30;;
7049;SDS011;22263;52.260;10.548;2023-05-16T05:50:40;0.40;;;0.40;;
7049;SDS011;22263;52.260;10.548;2023-05-16T05:54:09;0.40;;;0.40;;
7049;SDS011;22263;52.260;10.548;2023-05-16T05:57:37;0.40;;;0.40;;
7049;SDS011;22263;52.260;10.548;2023-05-16T06:01:10;0.40;;;0.40;;
7049;SDS011;22263;52.260;10.548;2023-05-16T06:04:39;0.43;;;0.43;;
7049;SDS011;22263;52.260;10.548;2023-05-16T06:08:08;0.35;;;0.35;;
7049;SDS011;22263;52.260;10.548;2023-05-16T06:11:36;0.50;;;0.50;;
7049;SDS011;22263;52.260;10.548;2023-05-16T06:15:05;0.50;;;0.50;;
7049;SDS011;22263;52.260;10.548;2023-05-16T06:18:37;0.30;;;0.30;;
7049;SDS011;22263;52.260;10.548;2023-05-16T06:22:06;0.40;;;0.40;;
7049;SDS011;22263;52.260;10.548;2023-05-16T06:25:34;0.40;;;0.40;;
7049;SDS011;22263;52.260;10.548;2023-05-16T06:29:05;0.40;;;0.40;;
7049;SDS011;22263;52.260;10.548;2023-05-16T06:32:34;0.30;;;0.30;;
7049;SDS011;22263;52.260;10.548;2023-05-16T06:36:06;0.40;;;0.40;;
7049;SDS011;22263;52.260;10.548;2023-05-16T06:39:35;0.30;;;0.30;;
7049;SDS011;22263;52.260;10.548;2023-05-16T06:43:03;0.40;;;0.40;;
7049;SDS011;22263;52.260;10.548;2023-05-16T06:46:32;0.30;;;0.30;;
7049;SDS011;22263;52.260;10.548;2023-05-16T06:50:00;0.30;;;0.30;;
7049;SDS011;22263;52.260;10.548;2023-05-16T06:53:31;0.30;;;0.30;;
7049;SDS011;22263;52.260;10.548;2023-05-16T06:57:01;0.30;;;0.30;;
7049;SDS011;22263;52.260;10.548;2023-05-16T07:00:29;0.40;;;0.40;;
7049;SDS011;22263;52.260;10.548;2023-05-16T07:03:57;0.38;;;0.38;;
7049;SDS011;22263;52.260;10.548;2023-05-16T07:07:26;0.40;;;0.40;;
7049;SDS011;22263;52.260;10.548;2023-05-16T07:10:57;0.47;;;0.47;;
7049;SDS011;22263;52.260;10.548;2023-05-16T07:14:25;0.40;;;0.40;;
7049;SDS011;22263;52.260;10.548;2023-05-16T07:17:54;0.40;;;0.40;;
7049;SDS011;22263;52.260;10.548;2023-05-16T07:21:23;0.32;;;0.32;;
7049;SDS011;22263;52.260;10.548;2023-05-16T07:24:51;0.30;;;0.30;;
7049;SDS011;22263;52.260;10.548;2023-05-16T07:28:22;0.30;;;0.30;;
7049;SDS011;22263;52.260;10.548;2023-05-16T07:31:50;0.30;;;0.30;;
7049;SDS011;22263;52.260;10.548;2023-05-16T07:35:19;0.40;;;0.40;;
7049;SDS011;22263;52.260;10.548;2023-05-16T07:38:47;0.40;;;0.40;;
7049;SDS011;22263;52.260;10.548;2023-05-16T07:42:16;0.30;;;0.30;;
7049;SDS011;22263;52.260;10.548;2023-05-16T07:45:47;0.30;;;0.30;;
7049;SDS011;22263;52.260;10.548;2023-05-16T07:49:16;0.30;;;0.30;;
7049;SDS011;22263;52.260;10.548;2023-05-16T07:52:45;0.30;;;0.30;;
7049;SDS011;22263;52.260;10.548;2023-05-16T07:56:13;0.30;;;0.30;;
7049;SDS011;22263;52.260;10.548;2023-05-16T07:59:42;0.30;;;0.30;;
7049;SDS011;22263;52.260;10.548;2023-05-16T08:03:13;0.30;;;0.30;;
7049;SDS011;22263;52.260;10.548;2023-05-16T08:06:42;0.35;;;0.35;;
7049;SDS011;22263;52.260;10.548;2023-05-16T08:10:10;0.30;;;0.30;;
7049;SDS011;22263;52.260;10.548;2023-05-16T08:13:39;0.30;;;0.30;;
7049;SDS011;22263;52.260;10.548;2023-05-16T08:17:09;0.40;;;0.40;;
7049;SDS011;22263;52.260;10.548;2023-05-16T08:20:47;0.40;;;0.40;;
7049;SDS011;22263;52.260;10.548;2023-05-16T08:24:16;0.30;;;0.30;;
7049;SDS011;22263;52.260;10.548;2023-05-16T08:27:45;0.30;;;0.30;;
7049;SDS011;22263;52.260;10.548;2023-05-16T08:31:13;0.40;;;0.40;;
7049;SDS011;22263;52.260;10.548;2023-05-16T08:34:44;0.30;;;0.30;;
7049;SDS011;22263;52.260;10.548;2023-05-16T08:38:14;0.30;;;0.30;;
7049;SDS011;22263;52.260;10.548;2023-05-16T08:41:42;0.30;;;0.30;;
7049;SDS011;22263;52.260;10.548;2023-05-16T08:45:11;0.30;;;0.30;;
7049;SDS011;22263;52.260;10.548;2023-05-16T08:48:39;0.30;;;0.30;;
7049;SDS011;22263;52.260;10.548;2023-05-16T08:52:15;0.30;;;0.30;;
7049;SDS011;22263;52.260;10.548;2023-05-16T08:55:52;0.30;;;0.30;;
7049;SDS011;22263;52.260;10.548;2023-05-16T08:59:21;0.30;;;0.30;;
7049;SDS011;22263;52.260;10.548;2023-05-16T09:02:50;0.30;;;0.30;;
7049;SDS011;22263;52.260;10.548;2023-05-16T09:06:19;0.30;;;0.30;;
7049;SDS011;22263;52.260;10.548;2023-05-16T09:09:50;0.30;;;0.30;;
7049;SDS011;22263;52.260;10.548;2023-05-16T09:13:19;0.30;;;0.30;;
7049;SDS011;22263;52.260;10.548;2023-05-16T09:16:54;0.30;;;0.30;;
7049;SDS011;22263;52.260;10.548;2023-05-16T09:20:31;0.30;;;0.30;;
7049;SDS011;22263;52.260;10.548;2023-05-16T09:24:07;0.30;;;0.30;;
7049;SDS011;22263;52.260;10.548;2023-05-16T09:27:56;0.20;;;0.20;;
7049;SDS011;22263;52.260;10.548;2023-05-16T09:31:25;0.30;;;0.30;;
7049;SDS011;22263;52.260;10.548;2023-05-16T09:34:54;0.20;;;0.20;;
7049;SDS011;22263;52.260;10.548;2023-05-16T09:38:26;0.20;;;0.20;;
7049;SDS011;22263;52.260;10.548;2023-05-16T09:41:58;0.20;;;0.20;;
7049;SDS011;22263;52.260;10.548;2023-05-16T09:46:07;0.20;;;0.20;;
7049;SDS011;22263;52.260;10.548;2023-05-16T09:49:36;0.20;;;0.20;;
7049;SDS011;22263;52.260;10.548;2023-05-16T09:53:05;0.20;;;0.20;;
7049;SDS011;22263;52.260;10.548;2023-05-16T09:56:49;0.20;;;0.20;;
7049;SDS011;22263;52.260;10.548;2023-05-16T10:00:18;0.20;;;0.20;;
7049;SDS011;22263;52.260;10.548;2023-05-16T10:03:47;0.20;;;0.20;;
7049;SDS011;22263;52.260;10.548;2023-05-16T10:07:16;0.20;;;0.20;;
7049;SDS011;22263;52.260;10.548;2023-05-16T10:10:44;0.20;;;0.20;;
7049;SDS011;22263;52.260;10.548;2023-05-16T10:14:16;0.28;;;0.28;;
7049;SDS011;22263;52.260;10.548;2023-05-16T10:17:47;0.20;;;0.20;;
7049;SDS011;22263;52.260;10.548;2023-05-16T10:21:18;0.20;;;0.20;;
7049;SDS011;22263;52.260;10.548;2023-05-16T10:24:51;0.20;;;0.20;;
7049;SDS011;22263;52.260;10.548;2023-05-16T10:28:23;0.20;;;0.20;;
7049;SDS011;22263;52.260;10.548;2023-05-16T10:32:08;0.20;;;0.20;;
7049;SDS011;22263;52.260;10.548;2023-05-16T10:35:37;0.20;;;0.20;;
7049;SDS011;22263;52.260;10.548;2023-05-16T10:39:06;0.20;;;0.20;;
7049;SDS011;22263;52.260;10.548;2023-05-16T10:42:36;0.20;;;0.20;;
7049;SDS011;22263;52.260;10.548;2023-05-16T10:46:07;0.20;;;0.20;;
7049;SDS011;22263;52.260;10.548;2023-05-16T10:49:37;0.20;;;0.20;;
7049;SDS011;22263;52.260;10.548;2023-05-16T10:53:15;0.10;;;0.10;;
7049;SDS011;22263;52.260;10.548;2023-05-16T10:56:53;0.20;;;0.20;;
7049;SDS011;22263;52.260;10.548;2023-05-16T11:00:22;0.10;;;0.10;;
7049;SDS011;22263;52.260;10.548;2023-05-16T11:04:02;0.20;;;0.20;;
7049;SDS011;22263;52.260;10.548;2023-05-16T11:07:32;0.20;;;0.20;;
7049;SDS011;22263;52.260;10.548;2023-05-16T11:14:50;0.20;;;0.20;;
7049;SDS011;22263;52.260;10.548;2023-05-16T11:18:21;0.28;;;0.28;;
7049;SDS011;22263;52.260;10.548;2023-05-16T11:22:03;0.20;;;0.20;;
7049;SDS011;22263;52.260;10.548;2023-05-16T11:25:48;0.20;;;0.20;;
7049;SDS011;22263;52.260;10.548;2023-05-16T11:29:16;0.20;;;0.20;;
7049;SDS011;22263;52.260;10.548;2023-05-16T11:32:47;0.10;;;0.10;;
7049;SDS011;22263;52.260;10.548;2023-05-16T11:36:19;0.20;;;0.20;;
7049;SDS011;22263;52.260;10.548;2023-05-16T11:39:48;0.20;;;0.20;;
7049;SDS011;22263;52.260;10.548;2023-05-16T11:43:17;0.20;;;0.20;;
7049;SDS011;22263;52.260;10.548;2023-05-16T11:46:48;0.10;;;0.10;;
7049;SDS011;22263;52.260;10.548;2023-05-16T11:50:20;0.17;;;0.17;;
7049;SDS011;22263;52.260;10.548;2023-05-16T11:53:49;0.20;;;0.20;;
7049;SDS011;22263;52.260;10.548;2023-05-16T11:57:19;0.20;;;0.20;;
7049;SDS011;22263;52.260;10.548;2023-05-16T12:00:48;0.20;;;0.20;;
7049;SDS011;22263;52.260;10.548;2023-05-16T12:04:17;0.20;;;0.20;;
7049;SDS011;22263;52.260;10.548;2023-05-16T12:07:53;0.20;;;0.20;;
7049;SDS011;22263;52.260;10.548;2023-05-16T12:11:22;0.10;;;0.10;;
7049;SDS011;22263;52.260;10.548;2023-05-16T12:14:50;0.20;;;0.20;;
7049;SDS011;22263;52.260;10.548;2023-05-16T12:18:19;0.20;;;0.20;;
7049;SDS011;22263;52.260;10.548;2023-05-16T12:21:51;0.20;;;0.20;;
7049;SDS011;22263;52.260;10.548;2023-05-16T12:25:24;0.13;;;0.13;;
7049;SDS011;22263;52.260;10.548;2023-05-16T12:28:56;0.10;;;0.10;;
7049;SDS011;22263;52.260;10.548;2023-05-16T12:32:26;0.20;;;0.20;;
7049;SDS011;22263;52.260;10.548;2023-05-16T12:35:57;0.20;;;0.20;;
7049;SDS011;22263;52.260;10.548;2023-05-16T12:39:27;0.20;;;0.20;;
7049;SDS011;22263;52.260;10.548;2023-05-16T12:43:12;0.20;;;0.20;;
7049;SDS011;22263;52.260;10.548;2023-05-16T12:46:43;0.20;;;0.20;;
7049;SDS011;22263;52.260;10.548;2023-05-16T12:50:13;0.30;;;0.30;;
7049;SDS011;22263;52.260;10.548;2023-05-16T12:53:43;0.30;;;0.30;;
7049;SDS011;22263;52.260;10.548;2023-05-16T12:57:14;0.30;;;0.30;;
7049;SDS011;22263;52.260;10.548;2023-05-16T13:00:42;0.30;;;0.30;;
7049;SDS011;22263;52.260;10.548;2023-05-16T13:04:12;0.20;;;0.20;;
7049;SDS011;22263;52.260;10.548;2023-05-16T13:07:40;0.20;;;0.20;;
7049;SDS011;22263;52.260;10.548;2023-05-16T13:11:08;0.30;;;0.30;;
7049;SDS011;22263;52.260;10.548;2023-05-16T13:14:40;0.20;;;0.20;;
7049;SDS011;22263;52.260;10.548;2023-05-16T13:18:09;0.28;;;0.28;;
7049;SDS011;22263;52.260;10.548;2023-05-16T13:21:38;0.20;;;0.20;;
7049;SDS011;22263;52.260;10.548;2023-05-16T13:25:06;0.20;;;0.20;;
7049;SDS011;22263;52.260;10.548;2023-05-16T13:28:35;0.20;;;0.20;;
7049;SDS011;22263;52.260;10.548;2023-05-16T13:32:06;0.20;;;0.20;;
7049;SDS011;22263;52.260;10.548;2023-05-16T13:35:35;0.20;;;0.20;;
7049;SDS011;22263;52.260;10.548;2023-05-16T13:39:21;0.10;;;0.10;;
7049;SDS011;22263;52.260;10.548;2023-05-16T13:42:49;0.10;;;0.10;;
7049;SDS011;22263;52.260;10.548;2023-05-16T13:46:18;0.20;;;0.20;;
7049;SDS011;22263;52.260;10.548;2023-05-16T13:49:49;0.25;;;0.25;;
7049;SDS011;22263;52.260;10.548;2023-05-16T13:53:17;0.30;;;0.30;;
7049;SDS011;22263;52.260;10.548;2023-05-16T13:56:47;0.20;;;0.20;;
7049;SDS011;22263;52.260;10.548;2023-05-16T14:00:16;0.22;;;0.22;;
7049;SDS011;22263;52.260;10.548;2023-05-16T14:03:47;0.30;;;0.30;;
7049;SDS011;22263;52.260;10.548;2023-05-16T14:07:16;0.20;;;0.20;;
7049;SDS011;22263;52.260;10.548;2023-05-16T14:10:44;0.30;;;0.30;;
7049;SDS011;22263;52.260;10.548;2023-05-16T14:14:12;0.20;;;0.20;;
7049;SDS011;22263;52.260;10.548;2023-05-16T14:17:41;0.20;;;0.20;;
7049;SDS011;22263;52.260;10.548;2023-05-16T14:21:12;0.20;;;0.20;;
7049;SDS011;22263;52.260;10.548;2023-05-16T14:24:40;0.20;;;0.20;;
7049;SDS011;22263;52.260;10.548;2023-05-16T14:28:08;0.20;;;0.20;;
7049;SDS011;22263;52.260;10.548;2023-05-16T14:31:37;0.20;;;0.20;;
7049;SDS011;22263;52.260;10.548;2023-05-16T14:35:06;0.20;;;0.20;;
7049;SDS011;22263;52.260;10.548;2023-05-16T14:38:37;0.20;;;0.20;;
7049;SDS011;22263;52.260;10.548;2023-05-16T14:42:06;0.20;;;0.20;;
7049;SDS011;22263;52.260;10.548;2023-05-16T14:45:35;0.20;;;0.20;;
7049;SDS011;22263;52.260;10.548;2023-05-16T14:49:04;0.20;;;0.20;;
7049;SDS011;22263;52.260;10.548;2023-05-16T14:52:32;0.28;;;0.28;;
7049;SDS011;22263;52.260;10.548;2023-05-16T14:56:03;0.30;;;0.30;;
7049;SDS011;22263;52.260;10.548;2023-05-16T14:59:33;0.30;;;0.30;;
7049;SDS011;22263;52.260;10.548;2023-05-16T15:03:01;0.20;;;0.20;;
7049;SDS011;22263;52.260;10.548;2023-05-16T15:06:29;0.20;;;0.20;;
7049;SDS011;22263;52.260;10.548;2023-05-16T15:09:58;0.30;;;0.30;;
7049;SDS011;22263;52.260;10.548;2023-05-16T15:13:29;0.20;;;0.20;;
7049;SDS011;22263;52.260;10.548;2023-05-16T15:16:57;0.20;;;0.20;;
7049;SDS011;22263;52.260;10.548;2023-05-16T15:20:26;0.20;;;0.20;;
7049;SDS011;22263;52.260;10.548;2023-05-16T15:23:54;0.20;;;0.20;;
7049;SDS011;22263;52.260;10.548;2023-05-16T15:27:22;0.20;;;0.20;;
7049;SDS011;22263;52.260;10.548;2023-05-16T15:30:53;0.20;;;0.20;;
7049;SDS011;22263;52.260;10.548;2023-05-16T15:34:22;0.20;;;0.20;;
7049;SDS011;22263;52.260;10.548;2023-05-16T15:37:50;0.20;;;0.20;;
7049;SDS011;22263;52.260;10.548;2023-05-16T15:41:19;0.20;;;0.20;;
7049;SDS011;22263;52.260;10.548;2023-05-16T15:44:47;0.20;;;0.20;;
7049;SDS011;22263;52.260;10.548;2023-05-16T15:48:18;0.20;;;0.20;;
7049;SDS011;22263;52.260;10.548;2023-05-16T15:51:47;0.20;;;0.20;;
7049;SDS011;22263;52.260;10.548;2023-05-16T15:55:15;0.30;;;0.30;;
7049;SDS011;22263;52.260;10.548;2023-05-16T15:58:44;0.30;;;0.30;;
7049;SDS011;22263;52.260;10.548;2023-05-16T16:02:12;0.22;;;0.22;;
7049;SDS011;22263;52.260;10.548;2023-05-16T16:05:43;0.30;;;0.30;;
7049;SDS011;22263;52.260;10.548;2023-05-16T16:09:11;0.20;;;0.20;;
7049;SDS011;22263;52.260;10.548;2023-05-16T16:12:40;0.30;;;0.30;;
7049;SDS011;22263;52.260;10.548;2023-05-16T16:16:08;0.25;;;0.25;;
7049;SDS011;22263;52.260;10.548;2023-05-16T16:19:37;0.30;;;0.30;;
7049;SDS011;22263;52.260;10.548;2023-05-16T16:23:08;0.30;;;0.30;;
7049;SDS011;22263;52.260;10.548;2023-05-16T16:26:36;0.30;;;0.30;;
7049;SDS011;22263;52.260;10.548;2023-05-16T16:30:05;0.20;;;0.20;;
7049;SDS011;22263;52.260;10.548;2023-05-16T16:33:34;0.30;;;0.30;;
7049;SDS011;22263;52.260;10.548;2023-05-16T16:37:02;0.30;;;0.30;;
7049;SDS011;22263;52.260;10.548;2023-05-16T16:40:35;0.30;;;0.30;;
7049;SDS011;22263;52.260;10.548;2023-05-16T16:44:03;0.30;;;0.30;;
7049;SDS011;22263;52.260;10.548;2023-05-16T16:47:32;0.30;;;0.30;;
7049;SDS011;22263;52.260;10.548;2023-05-16T16:51:02;0.30;;;0.30;;
7049;SDS011;22263;52.260;10.548;2023-05-16T16:54:30;0.30;;;0.30;;
7049;SDS011;22263;52.260;10.548;2023-05-16T16:58:02;0.30;;;0.30;;
7049;SDS011;22263;52.260;10.548;2023-05-16T17:01:30;0.40;;;0.40;;
7049;SDS011;22263;52.260;10.548;2023-05-16T17:04:59;0.30;;;0.30;;
7049;SDS011;22263;52.260;10.548;2023-05-16T17:08:27;0.30;;;0.30;;
7049;SDS011;22263;52.260;10.548;2023-05-16T17:11:55;0.30;;;0.30;;
7049;SDS011;22263;52.260;10.548;2023-05-16T17:15:34;0.30;;;0.30;;
7049;SDS011;22263;52.260;10.548;2023-05-16T17:19:03;0.30;;;0.30;;
7049;SDS011;22263;52.260;10.548;2023-05-16T17:22:33;0.30;;;0.30;;
7049;SDS011;22263;52.260;10.548;2023-05-16T17:26:01;0.30;;;0.30;;
7049;SDS011;22263;52.260;10.548;2023-05-16T17:29:30;0.40;;;0.40;;
7049;SDS011;22263;52.260;10.548;2023-05-16T17:33:01;0.30;;;0.30;;
7049;SDS011;22263;52.260;10.548;2023-05-16T17:36:29;0.30;;;0.30;;
7049;SDS011;22263;52.260;10.548;2023-05-16T17:39:58;0.40;;;0.40;;
7049;SDS011;22263;52.260;10.548;2023-05-16T17:43:28;0.30;;;0.30;;
7049;SDS011;22263;52.260;10.548;2023-05-16T17:46:56;0.30;;;0.30;;
7049;SDS011;22263;52.260;10.548;2023-05-16T17:50:27;0.30;;;0.30;;
7049;SDS011;22263;52.260;10.548;2023-05-16T17:53:56;0.30;;;0.30;;
7049;SDS011;22263;52.260;10.548;2023-05-16T17:57:25;0.38;;;0.38;;
7049;SDS011;22263;52.260;10.548;2023-05-16T18:00:53;0.30;;;0.30;;
7049;SDS011;22263;52.260;10.548;2023-05-16T18:04:23;0.30;;;0.30;;
7049;SDS011;22263;52.260;10.548;2023-05-16T18:07:55;0.30;;;0.30;;
7049;SDS011;22263;52.260;10.548;2023-05-16T18:11:23;0.30;;;0.30;;
7049;SDS011;22263;52.260;10.548;2023-05-16T18:14:52;0.30;;;0.30;;
7049;SDS011;22263;52.260;10.548;2023-05-16T18:18:21;0.30;;;0.30;;
7049;SDS011;22263;52.260;10.548;2023-05-16T18:21:49;0.30;;;0.30;;
7049;SDS011;22263;52.260;10.548;2023-05-16T18:25:21;0.30;;;0.30;;
7049;SDS011;22263;52.260;10.548;2023-05-16T18:28:49;0.30;;;0.30;;
7049;SDS011;22263;52.260;10.548;2023-05-16T18:32:19;0.30;;;0.30;;
7049;SDS011;22263;52.260;10.548;2023-05-16T18:35:47;0.30;;;0.30;;
7049;SDS011;22263;52.260;10.548;2023-05-16T18:39:16;0.35;;;0.35;;
7049;SDS011;22263;52.260;10.548;2023-05-16T18:42:47;0.30;;;0.30;;
7049;SDS011;22263;52.260;10.548;2023-05-16T18:46:15;0.30;;;0.30;;
7049;SDS011;22263;52.260;10.548;2023-05-16T18:49:44;0.30;;;0.30;;
7049;SDS011;22263;52.260;10.548;2023-05-16T18:53:13;0.30;;;0.30;;
7049;SDS011;22263;52.260;10.548;2023-05-16T18:56:49;0.30;;;0.30;;
7049;SDS011;22263;52.260;10.548;2023-05-16T19:00:20;0.30;;;0.30;;
7049;SDS011;22263;52.260;10.548;2023-05-16T19:03:49;0.40;;;0.40;;
7049;SDS011;22263;52.260;10.548;2023-05-16T19:07:18;0.40;;;0.40;;
7049;SDS011;22263;52.260;10.548;2023-05-16T19:10:52;0.40;;;0.40;;
7049;SDS011;22263;52.260;10.548;2023-05-16T19:14:25;0.30;;;0.30;;
7049;SDS011;22263;52.260;10.548;2023-05-16T19:17:54;0.30;;;0.30;;
7049;SDS011;22263;52.260;10.548;2023-05-16T19:21:23;0.30;;;0.30;;
7049;SDS011;22263;52.260;10.548;2023-05-16T19:24:51;0.30;;;0.30;;
7049;SDS011;22263;52.260;10.548;2023-05-16T19:28:20;0.30;;;0.30;;
7049;SDS011;22263;52.260;10.548;2023-05-16T19:31:51;0.40;;;0.40;;
7049;SDS011;22263;52.260;10.548;2023-05-16T19:35:19;0.30;;;0.30;;
7049;SDS011;22263;52.260;10.548;2023-05-16T19:38:48;0.30;;;0.30;;
7049;SDS011;22263;52.260;10.548;2023-05-16T19:42:16;0.30;;;0.30;;
7049;SDS011;22263;52.260;10.548;2023-05-16T19:45:44;0.30;;;0.30;;
7049;SDS011;22263;52.260;10.548;2023-05-16T19:49:15;0.40;;;0.40;;
7049;SDS011;22263;52.260;10.548;2023-05-16T19:52:44;0.40;;;0.40;;
7049;SDS011;22263;52.260;10.548;2023-05-16T19:56:13;0.40;;;0.40;;
7049;SDS011;22263;52.260;10.548;2023-05-16T19:59:41;0.30;;;0.30;;
7049;SDS011;22263;52.260;10.548;2023-05-16T20:03:09;0.40;;;0.40;;
7049;SDS011;22263;52.260;10.548;2023-05-16T20:06:41;0.40;;;0.40;;
7049;SDS011;22263;52.260;10.548;2023-05-16T20:10:09;0.30;;;0.30;;
7049;SDS011;22263;52.260;10.548;2023-05-16T20:13:38;0.40;;;0.40;;
7049;SDS011;22263;52.260;10.548;2023-05-16T20:17:07;0.30;;;0.30;;
7049;SDS011;22263;52.260;10.548;2023-05-16T20:20:36;0.30;;;0.30;;
7049;SDS011;22263;52.260;10.548;2023-05-16T20:24:07;0.40;;;0.40;;
7049;SDS011;22263;52.260;10.548;2023-05-16T20:27:36;0.40;;;0.40;;
7049;SDS011;22263;52.260;10.548;2023-05-16T20:31:04;0.32;;;0.32;;
7049;SDS011;22263;52.260;10.548;2023-05-16T20:34:33;0.40;;;0.40;;
7049;SDS011;22263;52.260;10.548;2023-05-16T20:38:01;0.40;;;0.40;;
7049;SDS011;22263;52.260;10.548;2023-05-16T20:41:34;0.40;;;0.40;;
7049;SDS011;22263;52.260;10.548;2023-05-16T20:45:03;0.40;;;0.40;;
7049;SDS011;22263;52.260;10.548;2023-05-16T20:48:31;0.30;;;0.30;;
7049;SDS011;22263;52.260;10.548;2023-05-16T20:52:01;0.40;;;0.40;;
7049;SDS011;22263;52.260;10.548;2023-05-16T20:55:30;0.40;;;0.40;;
7049;SDS011;22263;52.260;10.548;2023-05-16T20:59:01;0.30;;;0.30;;
7049;SDS011;22263;52.260;10.548;2023-05-16T21:02:29;0.40;;;0.40;;
7049;SDS011;22263;52.260;10.548;2023-05-16T21:05:58;0.40;;;0.40;;
7049;SDS011;22263;52.260;10.548;2023-05-16T21:09:26;0.40;;;0.40;;